createdAt,value
2018-04-28T00:00:15.459Z,52.80
2018-04-28T00:03:18.722Z,54.90
2018-04-28T00:06:21.227Z,54.90
2018-04-28T00:09:24.499Z,55.20
2018-04-28T00:12:26.990Z,55.20
2018-04-28T00:15:29.475Z,54.40
2018-04-28T00:18:32.752Z,54.50
2018-04-28T00:21:37.042Z,54.50
2018-04-28T00:24:40.122Z,54.70
2018-04-28T00:27:54.318Z,54.30
2018-04-28T00:30:58.525Z,54.30
2018-04-28T00:34:03.774Z,54.30
2018-04-28T00:37:07.653Z,55.10
2018-04-28T00:40:13.841Z,55.00
2018-04-28T00:43:16.979Z,55.20
2018-04-28T00:46:23.027Z,55.20
2018-04-28T00:49:26.982Z,55.20
2018-04-28T00:52:30.250Z,55.20
2018-04-28T00:55:36.619Z,55.10
2018-04-28T00:58:45.446Z,55.30
2018-04-28T01:05:26.275Z,55.60
2018-04-28T01:08:30.449Z,55.80
2018-04-28T01:11:35.613Z,56.00
2018-04-28T01:14:39.885Z,56.10
2018-04-28T01:21:17.514Z,56.40
2018-04-28T01:24:27.210Z,56.40
2018-04-28T01:27:35.179Z,56.30
2018-04-28T01:30:41.206Z,56.40
2018-04-28T01:33:51.612Z,56.40
2018-04-28T01:37:01.730Z,56.60
2018-04-28T01:40:12.596Z,56.70
2018-04-28T01:43:36.569Z,56.90
2018-04-28T01:46:44.509Z,56.70
2018-04-28T01:49:56.401Z,57.30
2018-04-28T01:53:00.402Z,57.30
2018-04-28T01:56:09.787Z,57.30
2018-04-28T01:59:12.234Z,57.40
2018-04-28T02:02:16.131Z,57.60
2018-04-28T02:05:39.314Z,57.60
2018-04-28T02:08:43.285Z,58.20
2018-04-28T02:11:48.637Z,58.10
2018-04-28T02:14:57.946Z,58.20
2018-04-28T02:18:09.134Z,59.30
2018-04-28T02:21:23.510Z,59.30
2018-04-28T02:24:29.905Z,59.70
2018-04-28T02:27:34.711Z,59.80
2018-04-28T02:30:48.301Z,59.80
2018-04-28T02:33:52.102Z,59.80
2018-04-28T02:36:56.943Z,60.00
2018-04-28T02:40:09.380Z,60.00
2018-04-28T02:43:22.521Z,60.40
2018-04-28T02:46:26.630Z,60.50
2018-04-28T02:53:23.589Z,60.60
2018-04-28T03:00:18.349Z,61.20
2018-04-28T03:03:26.426Z,61.00
2018-04-28T03:06:35.815Z,61.10
2018-04-28T03:09:41.858Z,61.50
2018-04-28T03:12:44.345Z,61.40
2018-04-28T03:15:46.805Z,61.70
2018-04-28T03:18:49.294Z,61.50
2018-04-28T03:21:58.099Z,61.50
2018-04-28T03:25:19.025Z,62.70
2018-04-28T03:28:28.097Z,61.80
2018-04-28T03:31:33.064Z,62.00
2018-04-28T03:34:49.207Z,62.10
2018-04-28T03:38:03.960Z,62.30
2018-04-28T03:41:23.963Z,62.30
2018-04-28T03:44:32.370Z,62.50
2018-04-28T03:47:39.323Z,62.50
2018-04-28T03:50:48.543Z,62.50
2018-04-28T03:53:53.432Z,62.50
2018-04-28T03:57:27.386Z,62.40
2018-04-28T04:00:41.866Z,62.20
2018-04-28T04:03:56.326Z,62.20
2018-04-28T04:07:19.214Z,62.20
2018-04-28T04:10:25.206Z,62.10
2018-04-28T04:13:36.632Z,62.40
2018-04-28T04:16:45.662Z,62.00
2018-04-28T04:19:51.063Z,60.60
2018-04-28T04:23:11.974Z,60.70
2018-04-28T04:26:17.974Z,60.50
2018-04-28T04:33:10.102Z,60.10
2018-04-28T04:36:18.366Z,59.90
2018-04-28T04:39:29.307Z,59.70
2018-04-28T04:46:03.065Z,59.50
2018-04-28T04:49:07.077Z,59.20
2018-04-28T04:52:11.193Z,59.00
2018-04-28T04:55:22.146Z,59.10
2018-04-28T04:58:26.010Z,58.70
2018-04-28T05:01:45.941Z,58.80
2018-04-28T05:08:48.918Z,58.70
2018-04-28T05:11:58.950Z,58.50
2018-04-28T05:15:05.016Z,58.00
2018-04-28T05:21:45.870Z,56.40
2018-04-28T05:28:42.885Z,55.10
2018-04-28T05:31:46.812Z,54.30
2018-04-28T05:35:00.829Z,51.20
2018-04-28T05:41:48.097Z,41.90
2018-04-28T05:48:46.658Z,38.00
2018-04-28T05:55:36.418Z,35.40
2018-04-28T06:02:37.703Z,35.00
2018-04-28T06:09:40.249Z,34.70
2018-04-28T06:12:51.042Z,36.50
2018-04-28T06:16:05.966Z,36.70
2018-04-28T06:23:00.039Z,37.20
2018-04-28T06:26:02.559Z,37.10
2018-04-28T06:29:05.707Z,38.10
2018-04-28T06:32:08.370Z,38.10
2018-04-28T06:35:10.935Z,38.50
2018-04-28T06:38:14.187Z,40.20
2018-04-28T06:41:16.713Z,40.10
2018-04-28T06:44:19.081Z,40.90
2018-04-28T06:47:21.537Z,40.60
2018-04-28T06:50:23.997Z,39.40
2018-04-28T06:53:26.454Z,39.10
2018-04-28T06:56:28.895Z,38.80
2018-04-28T06:59:32.114Z,38.30
2018-04-28T07:02:34.566Z,37.90
2018-04-28T07:05:37.786Z,35.70
2018-04-28T07:08:40.238Z,35.60
2018-04-28T07:11:43.444Z,34.50
2018-04-28T07:14:45.898Z,34.40
2018-04-28T07:17:48.439Z,32.70
2018-04-28T07:20:50.894Z,33.40
2018-04-28T07:23:53.375Z,32.10
2018-04-28T07:26:55.846Z,31.20
2018-04-28T07:29:58.350Z,30.20
2018-04-28T07:33:17.610Z,30.40
2018-04-28T07:36:20.073Z,30.10
2018-04-28T07:39:22.542Z,29.80
2018-04-28T07:42:25.031Z,29.50
2018-04-28T07:45:27.505Z,28.90
2018-04-28T07:48:29.991Z,29.20
2018-04-28T07:51:32.467Z,28.50
2018-04-28T07:54:34.962Z,27.60
2018-04-28T07:57:37.441Z,27.80
2018-04-28T08:00:39.914Z,28.30
2018-04-28T08:03:42.362Z,28.50
2018-04-28T08:06:44.817Z,27.90
2018-04-28T08:09:48.034Z,28.60
2018-04-28T08:12:50.478Z,28.60
2018-04-28T08:15:52.930Z,28.70
2018-04-28T08:18:55.408Z,29.00
2018-04-28T08:21:57.845Z,29.90
2018-04-28T08:25:00.300Z,29.60
2018-04-28T08:28:02.747Z,30.30
2018-04-28T08:31:05.202Z,31.30
2018-04-28T08:34:07.655Z,31.90
2018-04-28T08:37:10.199Z,33.40
2018-04-28T08:40:13.325Z,32.50
2018-04-28T08:43:15.783Z,32.40
2018-04-28T08:46:18.989Z,33.90
2018-04-28T08:49:21.441Z,33.80
2018-04-28T08:52:24.655Z,34.30
2018-04-28T08:55:27.111Z,34.30
2018-04-28T08:58:30.326Z,34.10
2018-04-28T09:01:32.799Z,34.10
2018-04-28T09:04:35.991Z,36.30
2018-04-28T09:07:38.428Z,36.30
2018-04-28T09:10:40.881Z,36.20
2018-04-28T09:13:43.338Z,37.00
2018-04-28T09:16:45.795Z,37.90
2018-04-28T09:19:48.251Z,37.70
2018-04-28T09:22:50.691Z,37.40
2018-04-28T09:25:53.140Z,36.20
2018-04-28T09:28:55.581Z,36.80
2018-04-28T09:31:58.806Z,37.80
2018-04-28T09:35:01.257Z,37.80
2018-04-28T09:38:03.707Z,38.20
2018-04-28T09:41:06.161Z,37.20
2018-04-28T09:44:08.615Z,38.70
2018-04-28T09:47:11.069Z,38.70
2018-04-28T09:50:14.283Z,39.30
2018-04-28T09:53:16.729Z,39.30
2018-04-28T09:56:19.977Z,39.00
2018-04-28T09:59:22.424Z,38.90
2018-04-28T10:02:24.869Z,37.40
2018-04-28T10:05:27.325Z,34.80
2018-04-28T10:08:29.777Z,36.40
2018-04-28T10:11:32.221Z,36.50
2018-04-28T10:14:34.669Z,36.00
2018-04-28T10:17:37.112Z,37.00
2018-04-28T10:20:39.562Z,37.80
2018-04-28T10:23:42.006Z,38.10
2018-04-28T10:26:45.217Z,37.80
2018-04-28T10:29:47.663Z,37.70
2018-04-28T10:32:50.206Z,38.50
2018-04-28T10:35:52.654Z,38.70
2018-04-28T10:38:55.102Z,38.60
2018-04-28T10:41:57.553Z,37.90
2018-04-28T10:44:59.992Z,39.20
2018-04-28T10:48:02.447Z,37.80
2018-04-28T10:51:05.658Z,37.50
2018-04-28T10:54:08.136Z,37.40
2018-04-28T10:57:10.578Z,38.10
2018-04-28T11:00:13.026Z,37.20
2018-04-28T11:03:15.473Z,38.10
2018-04-28T11:06:17.979Z,37.80
2018-04-28T11:09:21.136Z,36.90
2018-04-28T11:12:23.590Z,36.80
2018-04-28T11:15:26.801Z,37.30
2018-04-28T11:18:29.264Z,37.20
2018-04-28T11:21:32.478Z,37.50
2018-04-28T11:24:34.935Z,37.40
2018-04-28T11:27:38.150Z,38.90
2018-04-28T11:30:40.594Z,38.80
2018-04-28T11:33:43.046Z,38.90
2018-04-28T11:36:45.493Z,38.70
2018-04-28T11:39:47.954Z,38.90
2018-04-28T11:42:50.406Z,38.70
2018-04-28T11:45:53.614Z,40.20
2018-04-28T11:48:56.065Z,39.50
2018-04-28T11:51:59.299Z,39.80
2018-04-28T11:55:01.753Z,39.70
2018-04-28T11:58:04.993Z,39.50
2018-04-28T12:01:07.456Z,39.50
2018-04-28T12:04:09.906Z,39.50
2018-04-28T12:07:13.118Z,40.10
2018-04-28T12:10:15.565Z,40.00
2018-04-28T12:13:18.786Z,38.70
2018-04-28T12:16:21.226Z,38.70
2018-04-28T12:19:24.447Z,36.40
2018-04-28T12:22:26.905Z,36.80
2018-04-28T12:25:30.126Z,37.80
2018-04-28T12:28:32.570Z,37.80
2018-04-28T12:31:35.038Z,38.80
2018-04-28T12:34:37.481Z,40.00
2018-04-28T12:37:39.933Z,38.90
2018-04-28T12:40:42.377Z,38.80
2018-04-28T12:43:45.593Z,38.30
2018-04-28T12:46:48.041Z,38.20
2018-04-28T12:49:50.489Z,38.80
2018-04-28T12:52:52.947Z,39.40
2018-04-28T12:55:55.624Z,39.00
2018-04-28T12:58:58.098Z,37.30
2018-04-28T13:02:00.787Z,37.80
2018-04-28T13:05:03.264Z,37.30
2018-04-28T13:08:05.867Z,37.90
2018-04-28T13:11:09.120Z,38.80
2018-04-28T13:14:15.355Z,38.80
2018-04-28T13:17:17.808Z,38.80
2018-04-28T13:20:20.254Z,39.80
2018-04-28T13:23:22.924Z,38.50
2018-04-28T13:26:25.468Z,38.50
2018-04-28T13:29:27.994Z,38.60
2018-04-28T13:32:30.434Z,39.60
2018-04-28T13:35:33.686Z,38.70
2018-04-28T13:38:37.257Z,38.60
2018-04-28T13:41:39.817Z,38.50
2018-04-28T13:44:42.273Z,38.00
2018-04-28T13:47:44.818Z,38.50
2018-04-28T13:50:47.264Z,38.40
2018-04-28T13:53:49.717Z,37.50
2018-04-28T13:56:52.156Z,38.40
2018-04-28T13:59:54.597Z,37.60
2018-04-28T14:02:57.041Z,37.90
2018-04-28T14:06:00.269Z,38.70
2018-04-28T14:09:02.721Z,38.60
2018-04-28T14:12:05.936Z,37.70
2018-04-28T14:15:08.386Z,37.70
2018-04-28T14:18:11.609Z,36.60
2018-04-28T14:21:14.051Z,36.40
2018-04-28T14:24:16.585Z,35.30
2018-04-28T14:27:19.036Z,36.40
2018-04-28T14:30:21.498Z,36.80
2018-04-28T14:33:24.717Z,36.40
2018-04-28T14:36:27.174Z,36.30
2018-04-28T14:39:30.396Z,37.30
2018-04-28T14:42:39.901Z,37.30
2018-04-28T14:45:43.121Z,38.20
2018-04-28T14:48:45.577Z,38.10
2018-04-28T14:51:48.785Z,38.30
2018-04-28T14:54:51.238Z,38.30
2018-04-28T14:57:54.457Z,39.90
2018-04-28T15:00:57.060Z,39.90
2018-04-28T15:07:29.875Z,39.50
2018-04-28T15:14:08.232Z,38.20
2018-04-28T15:17:10.681Z,37.60
2018-04-28T15:20:13.127Z,39.10
2018-04-28T15:23:15.588Z,37.80
2018-04-28T15:26:18.823Z,37.40
2018-04-28T15:29:21.265Z,37.40
2018-04-28T15:32:24.497Z,38.10
2018-04-28T15:35:26.940Z,38.10
2018-04-28T15:38:29.398Z,38.90
2018-04-28T15:41:31.842Z,38.70
2018-04-28T15:44:34.306Z,38.40
2018-04-28T15:47:36.757Z,39.20
2018-04-28T15:50:39.208Z,38.70
2018-04-28T15:53:42.442Z,39.90
2018-04-28T15:56:44.878Z,39.10
2018-04-28T15:59:48.105Z,39.60
2018-04-28T16:02:50.582Z,39.60
2018-04-28T16:05:53.008Z,39.40
2018-04-28T16:08:55.463Z,39.70
2018-04-28T16:11:57.909Z,39.60
2018-04-28T16:15:00.369Z,39.60
2018-04-28T16:18:03.586Z,40.00
2018-04-28T16:21:06.021Z,40.00
2018-04-28T16:24:09.254Z,40.70
2018-04-28T16:27:11.712Z,40.70
2018-04-28T16:30:14.155Z,40.50
2018-04-28T16:33:16.813Z,40.00
2018-04-28T16:36:19.251Z,40.20
2018-04-28T16:39:21.705Z,40.20
2018-04-28T16:42:24.918Z,40.30
2018-04-28T16:45:27.369Z,40.30
2018-04-28T16:48:30.596Z,41.40
2018-04-28T16:51:33.045Z,41.30
2018-04-28T16:54:35.502Z,42.10
2018-04-28T16:57:37.950Z,42.60
2018-04-28T17:00:40.406Z,42.30
2018-04-28T17:03:42.857Z,42.00
2018-04-28T17:06:46.088Z,42.50
2018-04-28T17:09:48.525Z,42.40
2018-04-28T17:12:51.753Z,42.70
2018-04-28T17:15:54.206Z,42.70
2018-04-28T17:18:57.429Z,43.10
2018-04-28T17:21:59.869Z,43.10
2018-04-28T17:25:04.092Z,43.60
2018-04-28T17:28:06.523Z,43.50
2018-04-28T17:31:08.986Z,43.90
2018-04-28T17:34:11.465Z,44.30
2018-04-28T17:37:13.957Z,44.50
2018-04-28T17:40:16.367Z,44.50
2018-04-28T17:43:19.569Z,45.30
2018-04-28T17:46:22.789Z,44.90
2018-04-28T17:49:25.299Z,44.80
2018-04-28T17:52:27.690Z,44.90
2018-04-28T17:55:30.148Z,44.70
2018-04-28T17:58:32.595Z,44.60
2018-04-28T18:01:35.050Z,44.90
2018-04-28T18:04:37.513Z,45.20
2018-04-28T18:07:39.958Z,45.50
2018-04-28T18:10:42.421Z,46.00
2018-04-28T18:13:44.871Z,46.10
2018-04-28T18:16:47.369Z,45.80
2018-04-28T18:19:49.822Z,45.80
2018-04-28T18:22:52.262Z,45.90
2018-04-28T18:25:54.723Z,46.10
2018-04-28T18:28:57.282Z,46.20
2018-04-28T18:31:59.746Z,46.10
2018-04-28T18:35:02.205Z,46.60
2018-04-28T18:38:04.645Z,46.80
2018-04-28T18:41:07.107Z,47.40
2018-04-28T18:44:09.562Z,47.40
2018-04-28T18:47:12.026Z,47.80
2018-04-28T18:50:14.478Z,48.30
2018-04-28T18:53:17.686Z,47.90
2018-04-28T18:56:20.149Z,47.80
2018-04-28T18:59:23.357Z,48.40
2018-04-28T19:02:25.813Z,48.30
2018-04-28T19:05:28.270Z,48.50
2018-04-28T19:08:30.711Z,48.50
2018-04-28T19:11:33.177Z,48.40
2018-04-28T19:14:35.613Z,48.80
2018-04-28T19:17:38.833Z,49.00
2018-04-28T19:20:41.285Z,49.00
2018-04-28T19:23:44.493Z,49.10
2018-04-28T19:26:46.948Z,49.10
2018-04-28T19:29:50.162Z,49.00
2018-04-28T19:32:52.621Z,49.30
2018-04-28T19:35:55.077Z,50.50
2018-04-28T19:38:57.526Z,50.30
2018-04-28T19:41:59.985Z,50.50
2018-04-28T19:45:02.422Z,49.90
2018-04-28T19:48:04.881Z,50.60
2018-04-28T19:51:07.333Z,51.90
2018-04-28T19:54:09.785Z,51.60
2018-04-28T19:57:12.239Z,52.60
2018-04-28T20:00:15.489Z,52.00
2018-04-28T20:03:17.902Z,52.00
2018-04-28T20:06:20.353Z,53.20
2018-04-28T20:09:22.806Z,53.20
2018-04-28T20:12:25.265Z,54.50
2018-04-28T20:15:27.708Z,52.20
2018-04-28T20:18:30.160Z,53.70
2018-04-28T20:21:32.618Z,51.70
2018-04-28T20:24:47.044Z,53.80
2018-04-28T20:27:49.497Z,54.40
2018-04-28T20:30:52.722Z,51.70
2018-04-28T20:33:55.172Z,51.60
2018-04-28T20:36:58.398Z,51.40
2018-04-28T20:40:00.845Z,51.40
2018-04-28T20:43:04.086Z,51.60
2018-04-28T20:46:06.538Z,51.50
2018-04-28T20:49:08.994Z,51.80
2018-04-28T20:52:12.214Z,52.30
2018-04-28T20:55:14.658Z,52.30
2018-04-28T20:58:17.109Z,53.80
2018-04-28T21:01:19.561Z,57.50
2018-04-28T21:04:22.022Z,57.80
2018-04-28T21:07:24.473Z,58.20
2018-04-28T21:10:27.691Z,57.60
2018-04-28T21:13:30.142Z,57.60
2018-04-28T21:16:33.345Z,56.30
2018-04-28T21:19:35.802Z,56.30
2018-04-28T21:22:39.029Z,57.50
2018-04-28T21:25:41.474Z,56.80
2018-04-28T21:28:43.934Z,56.30
2018-04-28T21:31:46.380Z,56.30
2018-04-28T21:34:48.834Z,55.30
2018-04-28T21:37:51.376Z,55.20
2018-04-28T21:40:54.502Z,55.30
2018-04-28T21:44:11.842Z,55.30
2018-04-28T21:47:14.318Z,55.30
2018-04-28T21:50:16.749Z,54.90
2018-04-28T21:53:19.221Z,54.70
2018-04-28T21:56:21.682Z,53.60
2018-04-28T21:59:24.137Z,54.60
2018-04-28T22:02:26.601Z,55.90
2018-04-28T22:05:29.038Z,57.40
2018-04-28T22:08:31.489Z,56.60
2018-04-28T22:11:33.941Z,55.50
2018-04-28T22:14:36.390Z,55.20
2018-04-28T22:17:38.841Z,55.50
2018-04-28T22:20:41.285Z,54.30
2018-04-28T22:23:43.744Z,54.30
2018-04-28T22:26:46.189Z,54.20
2018-04-28T22:29:48.638Z,56.10
2018-04-28T22:32:51.094Z,57.10
2018-04-28T22:35:53.546Z,57.70
2018-04-28T22:38:56.011Z,57.80
2018-04-28T22:41:58.457Z,57.50
2018-04-28T22:45:02.651Z,58.00
2018-04-28T22:48:05.100Z,58.00
2018-04-28T22:51:07.558Z,58.30
2018-04-28T22:54:10.007Z,58.40
2018-04-28T22:57:13.222Z,58.20
2018-04-28T23:00:15.661Z,58.20
2018-04-28T23:03:18.106Z,58.20
2018-04-28T23:06:20.553Z,58.20
2018-04-28T23:09:22.998Z,58.10
2018-04-28T23:12:25.446Z,58.50
2018-04-28T23:15:27.890Z,58.20
2018-04-28T23:18:30.356Z,57.40
2018-04-28T23:21:32.801Z,57.10
2018-04-28T23:24:35.250Z,57.10
2018-04-28T23:27:37.709Z,57.40
2018-04-28T23:30:40.154Z,57.40
2018-04-28T23:33:42.601Z,57.60
2018-04-28T23:36:45.058Z,57.50
2018-04-28T23:39:47.506Z,57.90
2018-04-28T23:42:49.965Z,58.00
2018-04-28T23:45:52.397Z,58.20
2018-04-28T23:48:54.853Z,58.40
2018-04-28T23:51:57.326Z,58.50
2018-04-28T23:54:59.779Z,58.60
2018-04-28T23:58:02.226Z,59.10
